MMAA

General Juan N Alvarez International Airport

Airport
ICAO code
MMAA
IATA Code
ACA
Summary
ICAO Region
CARSAM
ICAO Territory
Location

Acapulco, Guerrero

Serving
Acapulco
Elevation
16 ft
Coordinates
16° 45' 25" N , 99° 45' 14" W
KCC
Airport WX
Cumulonimbus
Metar
MMAA 231250Z 00000KT 8SM BKN090 BKN300 28/24 A2984 RMK 8/031 HZY SC S SW

International airport serving Acapulco, Mexico.

Climatology

Tropical Savanna climate (Köppen climate classification Aw)

Runways

Designator Length Width Surface Rops
6/24 1700 35 CON Yes/Yes
10/28 3302 45 CON Yes/Yes

Airport map

Aerial View

SKYbrary Partners:

Safety knowledge contributed by: